Time;durP1;ratioP1;P1;durP2;ratioP2;P2;SDS_P1;SDS_P2;PMS_P1;PMS_P2;Temp;Humidity;BMP_temperature;BMP_pressure;BME280_temperature;BME280_humidity;BME280_pressure;Samples;Min_cycle;Max_cycle;Signal;HPM_P1;HPM_P2
2022/12/17 13:06:10;;;;;;;4.80;2.88;;;;;;;;;;5054197;28;20080;-66
2022/12/17 13:08:37;;;;;;;4.30;3.08;;;;;;;;;;5035538;28;20052;-66
2022/12/17 13:11:30;;;;;;;4.72;2.92;;;;;;;;;;5034131;28;20078;-66
2022/12/17 13:13:59;;;;;;;4.38;3.13;;;;;;;;;;5036890;28;20048;-66
2022/12/17 13:16:58;;;;;;;4.50;3.30;;;;;;;;;;5053718;28;20055;-67
2022/12/17 13:19:30;;;;;;;5.40;3.40;;;;;;;;;;5052549;28;20056;-66
2022/12/17 13:22:08;;;;;;;6.18;3.70;;;;;;;;;;5052796;28;20060;-66
2022/12/17 13:24:34;;;;;;;6.60;4.10;;;;;;;;;;5033407;28;20059;-66
2022/12/17 13:27:01;;;;;;;5.35;4.07;;;;;;;;;;5032517;28;20408;-66
2022/12/17 13:29:31;;;;;;;7.07;4.50;;;;;;;;;;5032753;28;20048;-66
2022/12/17 13:32:00;;;;;;;6.30;3.92;;;;;;;;;;5031898;28;20413;-67
2022/12/17 13:34:26;;;;;;;5.72;3.85;;;;;;;;;;5038129;28;20053;-67
2022/12/17 13:37:09;;;;;;;6.78;4.22;;;;;;;;;;5032876;28;20049;-67
2022/12/17 13:39:49;;;;;;;7.22;3.88;;;;;;;;;;5037771;28;20044;-67
2022/12/17 13:42:17;;;;;;;8.00;4.38;;;;;;;;;;5053300;28;20053;-66
2022/12/17 13:44:44;;;;;;;5.50;4.75;;;;;;;;;;5053102;28;20044;-66
2022/12/17 13:47:21;;;;;;;5.65;4.97;;;;;;;;;;5053076;28;20049;-66
2022/12/17 13:49:52;;;;;;;8.20;5.50;;;;;;;;;;5053209;28;20096;-66
2022/12/17 13:52:39;;;;;;;8.73;5.03;;;;;;;;;;5032598;28;20493;-66
2022/12/17 13:55:12;;;;;;;8.32;4.95;;;;;;;;;;5032310;28;20073;-66
2022/12/17 13:57:43;;;;;;;8.88;5.00;;;;;;;;;;5040712;28;20268;-66
2022/12/17 14:00:17;;;;;;;9.25;5.22;;;;;;;;;;5041187;28;20065;-66
2022/12/17 14:02:43;;;;;;;7.88;5.13;;;;;;;;;;5043254;28;20063;-65
2022/12/17 14:05:28;;;;;;;7.13;4.80;;;;;;;;;;5052830;28;20044;-66
2022/12/17 14:07:57;;;;;;;10.40;5.13;;;;;;;;;;5052997;28;20055;-66
2022/12/17 14:10:23;;;;;;;5.22;3.88;;;;;;;;;;5052653;28;20053;-66
2022/12/17 14:12:50;;;;;;;6.38;3.70;;;;;;;;;;5052668;28;20413;-66
2022/12/17 14:15:20;;;;;;;9.43;3.22;;;;;;;;;;5042953;28;20804;-66
2022/12/17 14:17:48;;;;;;;4.95;2.80;;;;;;;;;;5032691;28;20049;-66
2022/12/17 14:20:22;;;;;;;7.15;3.47;;;;;;;;;;5033543;28;20072;-66
2022/12/17 14:22:49;;;;;;;6.20;3.30;;;;;;;;;;5036438;28;20057;-64
2022/12/17 14:25:17;;;;;;;7.57;3.30;;;;;;;;;;5037175;28;20080;-65
2022/12/17 14:27:57;;;;;;;7.10;2.90;;;;;;;;;;5047732;28;20057;-65
2022/12/17 14:30:34;;;;;;;6.28;2.70;;;;;;;;;;5032274;28;20054;-67
2022/12/17 14:33:00;;;;;;;4.55;2.78;;;;;;;;;;5032490;28;20042;-67
2022/12/17 14:35:32;;;;;;;3.97;2.50;;;;;;;;;;5032653;28;20052;-67
2022/12/17 14:37:59;;;;;;;3.83;2.10;;;;;;;;;;5031361;28;20042;-67
2022/12/17 14:40:25;;;;;;;5.07;2.22;;;;;;;;;;5032636;28;20059;-67
2022/12/17 14:42:56;;;;;;;6.90;2.25;;;;;;;;;;5037735;28;20053;-67
2022/12/17 14:45:24;;;;;;;4.38;2.42;;;;;;;;;;5032587;28;20064;-67
2022/12/17 14:47:58;;;;;;;4.95;2.10;;;;;;;;;;5032197;28;20053;-67
2022/12/17 14:50:32;;;;;;;5.03;2.00;;;;;;;;;;5037843;28;20060;-67
2022/12/17 14:53:00;;;;;;;4.20;2.50;;;;;;;;;;5052628;28;20052;-67
2022/12/17 14:55:32;;;;;;;5.25;2.40;;;;;;;;;;5052791;28;20052;-67
2022/12/17 14:58:25;;;;;;;2.40;1.95;;;;;;;;;;5052561;28;20057;-67
2022/12/17 15:01:11;;;;;;;5.05;2.80;;;;;;;;;;5051997;28;20515;-67
2022/12/17 15:03:42;;;;;;;5.57;2.25;;;;;;;;;;5052128;28;20059;-67
2022/12/17 15:06:10;;;;;;;6.00;2.05;;;;;;;;;;5052341;28;20447;-67
2022/12/17 15:08:40;;;;;;;4.88;1.95;;;;;;;;;;5052373;28;20049;-67
2022/12/17 15:11:09;;;;;;;6.53;2.45;;;;;;;;;;5052426;28;20531;-67
2022/12/17 15:13:36;;;;;;;5.25;2.35;;;;;;;;;;5052157;28;20052;-67
2022/12/17 15:16:02;;;;;;;3.05;1.52;;;;;;;;;;5052188;28;20049;-67
2022/12/17 15:18:28;;;;;;;4.78;2.05;;;;;;;;;;5052247;28;20053;-67
2022/12/17 15:20:55;;;;;;;5.15;2.10;;;;;;;;;;5052116;28;20071;-67
2022/12/17 15:23:22;;;;;;;4.45;1.92;;;;;;;;;;5052062;28;20053;-67
2022/12/17 15:25:49;;;;;;;7.18;2.28;;;;;;;;;;5051770;28;20041;-67
2022/12/17 15:28:16;;;;;;;4.07;2.20;;;;;;;;;;5051627;28;20053;-66
2022/12/17 15:30:43;;;;;;;9.23;2.17;;;;;;;;;;5051534;28;20520;-66
2022/12/17 15:33:10;;;;;;;4.30;2.45;;;;;;;;;;5051775;28;20041;-66
2022/12/17 15:35:37;;;;;;;5.05;2.20;;;;;;;;;;5051786;28;20049;-67
2022/12/17 15:38:03;;;;;;;3.83;2.20;;;;;;;;;;5051720;28;20048;-65
2022/12/17 15:40:30;;;;;;;4.10;2.30;;;;;;;;;;5051871;28;20057;-65
2022/12/17 15:43:29;;;;;;;4.55;1.90;;;;;;;;;;5051657;28;20051;-64
2022/12/17 15:45:50;;;;;;;5.13;1.95;;;;;;;;;;5050467;28;20099;-64
2022/12/17 15:48:18;;;;;;;4.25;1.98;;;;;;;;;;5051014;28;20052;-64
2022/12/17 15:50:44;;;;;;;5.88;2.13;;;;;;;;;;5051010;28;20059;-64
2022/12/17 15:53:11;;;;;;;5.50;1.90;;;;;;;;;;5051150;28;20045;-66
2022/12/17 15:55:38;;;;;;;4.65;2.30;;;;;;;;;;5032881;28;20409;-66
2022/12/17 15:58:05;;;;;;;6.13;2.60;;;;;;;;;;5043728;28;20051;-65
2022/12/17 16:00:31;;;;;;;3.30;2.30;;;;;;;;;;5050879;28;20053;-66
2022/12/17 16:02:58;;;;;;;6.20;3.38;;;;;;;;;;5049312;28;20044;-66
2022/12/17 16:05:24;;;;;;;5.35;2.90;;;;;;;;;;5050568;28;20071;-66
2022/12/17 16:07:51;;;;;;;4.10;3.00;;;;;;;;;;5050710;28;20044;-66
2022/12/17 16:10:17;;;;;;;4.55;3.25;;;;;;;;;;5051029;28;20052;-66
2022/12/17 16:12:44;;;;;;;5.43;3.10;;;;;;;;;;5050892;28;20173;-66
2022/12/17 16:15:11;;;;;;;6.97;3.53;;;;;;;;;;5050796;28;20052;-69
2022/12/17 16:17:37;;;;;;;6.85;2.83;;;;;;;;;;5030574;28;20049;-68
2022/12/17 16:20:04;;;;;;;5.40;2.97;;;;;;;;;;5030420;28;20053;-67
2022/12/17 16:22:31;;;;;;;8.98;3.25;;;;;;;;;;5049011;28;20403;-67
2022/12/17 16:24:57;;;;;;;5.18;2.78;;;;;;;;;;5050894;28;20045;-67
2022/12/17 16:27:23;;;;;;;9.80;3.42;;;;;;;;;;5036235;28;20140;-66
2022/12/17 16:29:50;;;;;;;4.47;3.10;;;;;;;;;;5050564;28;20053;-66
2022/12/17 16:32:16;;;;;;;8.07;3.28;;;;;;;;;;5037310;28;20046;-67
2022/12/17 16:34:43;;;;;;;5.75;2.95;;;;;;;;;;5046906;28;20049;-66
2022/12/17 16:37:09;;;;;;;6.03;2.90;;;;;;;;;;5036321;28;20041;-67
2022/12/17 16:39:36;;;;;;;7.07;2.83;;;;;;;;;;5042552;28;20050;-67
2022/12/17 16:42:02;;;;;;;4.15;2.92;;;;;;;;;;5044167;28;20432;-66
2022/12/17 16:44:29;;;;;;;7.00;3.20;;;;;;;;;;5050656;28;20174;-67
2022/12/17 16:46:55;;;;;;;7.93;3.30;;;;;;;;;;5050545;28;20045;-67
2022/12/17 16:49:25;;;;;;;6.63;3.63;;;;;;;;;;5050740;28;20083;-66
2022/12/17 16:51:51;;;;;;;6.95;4.65;;;;;;;;;;5033661;28;20049;-67
2022/12/17 16:54:19;;;;;;;8.15;4.85;;;;;;;;;;5030157;28;20057;-67
2022/12/17 16:56:46;;;;;;;8.82;4.57;;;;;;;;;;5032391;28;20469;-67
2022/12/17 16:59:13;;;;;;;9.32;4.45;;;;;;;;;;5046569;28;20065;-67
2022/12/17 17:01:40;;;;;;;7.70;4.68;;;;;;;;;;5031280;28;20046;-67
2022/12/17 17:04:07;;;;;;;5.95;3.85;;;;;;;;;;5026384;28;20096;-67
2022/12/17 17:06:38;;;;;;;8.27;4.53;;;;;;;;;;5029968;28;20099;-67
2022/12/17 17:09:05;;;;;;;6.82;4.32;;;;;;;;;;5033702;28;20071;-67
2022/12/17 17:11:31;;;;;;;9.48;5.05;;;;;;;;;;5033370;28;20042;-67
2022/12/17 17:13:57;;;;;;;12.43;5.10;;;;;;;;;;5033614;28;20064;-67
2022/12/17 17:16:24;;;;;;;8.25;4.75;;;;;;;;;;5033687;28;20493;-67
2022/12/17 17:18:51;;;;;;;13.27;5.93;;;;;;;;;;5033347;28;20046;-67
2022/12/17 17:21:18;;;;;;;9.30;5.45;;;;;;;;;;5034084;28;20053;-67
2022/12/17 17:23:52;;;;;;;5.88;3.80;;;;;;;;;;5053951;28;20056;-67
2022/12/17 17:26:22;;;;;;;;;;;;;;;;;;5033684;28;20080;-67
2022/12/17 17:28:48;;;;;;;49.22;25.55;;;;;;;;;;5033388;28;20661;-67
2022/12/17 17:31:15;;;;;;;18.90;10.50;;;;;;;;;;5033596;28;20053;-67
2022/12/17 17:33:43;;;;;;;7.88;5.57;;;;;;;;;;5033782;28;20042;-67
2022/12/17 17:36:11;;;;;;;10.38;8.20;;;;;;;;;;5033148;28;20045;-66
2022/12/17 17:38:38;;;;;;;8.50;6.93;;;;;;;;;;5033502;28;20053;-66
2022/12/17 17:41:05;;;;;;;;;;;;;;;;;;5033777;28;20405;-66
2022/12/17 17:43:31;;;;;;;14.35;9.52;;;;;;;;;;5033349;28;19924;-66
2022/12/17 17:46:04;;;;;;;13.43;8.20;;;;;;;;;;5032980;28;20477;-66
2022/12/17 17:48:32;;;;;;;13.30;9.35;;;;;;;;;;5033225;28;20076;-66
2022/12/17 17:50:59;;;;;;;15.10;9.70;;;;;;;;;;5033179;28;20069;-66
2022/12/17 17:53:26;;;;;;;21.80;12.68;;;;;;;;;;5033228;28;20051;-66
2022/12/17 17:55:52;;;;;;;18.15;12.70;;;;;;;;;;5047882;28;20053;-66
2022/12/17 17:58:19;;;;;;;20.75;14.93;;;;;;;;;;5049534;28;20049;-66
2022/12/17 18:00:45;;;;;;;22.05;15.30;;;;;;;;;;5032942;28;20064;-66
2022/12/17 18:03:11;;;;;;;19.05;13.65;;;;;;;;;;5030770;28;20059;-66
2022/12/17 18:05:38;;;;;;;20.23;13.02;;;;;;;;;;5032555;28;20080;-67
2022/12/17 18:08:07;;;;;;;17.95;12.35;;;;;;;;;;5032635;28;20074;-66
2022/12/17 18:10:33;;;;;;;26.05;17.92;;;;;;;;;;5032577;28;20413;-66
2022/12/17 18:15:45;;;;;;;22.20;14.50;;;;;;;;;;5050203;28;20488;-66
2022/12/17 18:18:11;;;;;;;20.95;13.35;;;;;;;;;;5051817;28;20049;-66
2022/12/17 18:20:40;;;;;;;18.50;13.23;;;;;;;;;;5052306;28;20122;-66
2022/12/17 18:23:06;;;;;;;20.17;12.73;;;;;;;;;;5052014;28;20518;-66
2022/12/17 18:25:33;;;;;;;15.20;11.40;;;;;;;;;;5052167;28;20041;-66
2022/12/17 18:28:03;;;;;;;19.85;11.88;;;;;;;;;;5051782;28;20088;-67
2022/12/17 18:30:29;;;;;;;18.13;12.32;;;;;;;;;;5052084;28;20044;-66
2022/12/17 18:32:56;;;;;;;15.73;12.80;;;;;;;;;;5046609;28;20041;-67
2022/12/17 18:35:23;;;;;;;16.85;13.95;;;;;;;;;;5031751;28;20531;-67
2022/12/17 18:37:49;;;;;;;20.70;14.85;;;;;;;;;;5031790;28;20049;-67
2022/12/17 18:40:15;;;;;;;28.85;19.77;;;;;;;;;;5031680;28;20420;-67
2022/12/17 18:45:26;;;;;;;30.00;21.17;;;;;;;;;;5046572;28;20059;-67
2022/12/17 18:47:53;;;;;;;35.03;24.23;;;;;;;;;;5051388;28;20119;-67
2022/12/17 18:50:19;;;;;;;42.20;29.52;;;;;;;;;;5051306;28;20051;-67
2022/12/17 18:52:45;;;;;;;38.95;26.35;;;;;;;;;;5052657;28;20041;-67
2022/12/17 18:55:12;;;;;;;38.33;29.35;;;;;;;;;;5052617;28;20040;-67
2022/12/17 18:57:38;;;;;;;36.65;24.83;;;;;;;;;;5052411;28;20053;-67
2022/12/17 19:00:05;;;;;;;39.80;27.55;;;;;;;;;;5039804;28;20132;-67
2022/12/17 19:02:31;;;;;;;53.92;40.70;;;;;;;;;;5049223;28;20061;-67
2022/12/17 19:04:58;;;;;;;79.68;56.58;;;;;;;;;;5050367;28;20151;-67
2022/12/17 19:07:24;;;;;;;60.00;46.08;;;;;;;;;;5035525;28;20048;-67
2022/12/17 19:09:51;;;;;;;17.83;13.18;;;;;;;;;;5039363;28;20045;-67
2022/12/17 19:12:17;;;;;;;22.90;14.65;;;;;;;;;;5052028;28;20053;-67
2022/12/17 19:14:43;;;;;;;21.25;14.85;;;;;;;;;;5051786;28;20058;-66
2022/12/17 19:17:10;;;;;;;22.85;16.50;;;;;;;;;;5043710;28;20053;-66
2022/12/17 19:19:36;;;;;;;16.45;11.90;;;;;;;;;;5036902;28;20041;-66
2022/12/17 19:22:02;;;;;;;19.35;14.82;;;;;;;;;;5051946;28;20059;-66
2022/12/17 19:24:29;;;;;;;17.80;13.20;;;;;;;;;;5045855;28;20496;-66
2022/12/17 19:26:55;;;;;;;15.13;11.00;;;;;;;;;;5039204;28;20057;-66
2022/12/17 19:29:22;;;;;;;16.13;11.77;;;;;;;;;;5037640;28;20056;-66
2022/12/17 19:31:48;;;;;;;15.90;10.00;;;;;;;;;;5033676;28;20067;-67
2022/12/17 19:34:16;;;;;;;13.93;9.82;;;;;;;;;;5044133;28;20053;-67
2022/12/17 19:36:42;;;;;;;13.18;9.85;;;;;;;;;;5043166;28;20064;-67
2022/12/17 19:39:13;;;;;;;14.80;10.60;;;;;;;;;;5049193;28;20057;-68
2022/12/17 19:41:39;;;;;;;18.63;10.70;;;;;;;;;;5035654;28;20072;-66
2022/12/17 19:44:07;;;;;;;14.73;11.45;;;;;;;;;;5051048;28;20052;-66
2022/12/17 19:46:35;;;;;;;18.35;13.32;;;;;;;;;;5049113;28;20052;-66
2022/12/17 19:49:01;;;;;;;17.20;13.87;;;;;;;;;;5051171;28;20041;-65
2022/12/17 19:51:28;;;;;;;19.60;13.30;;;;;;;;;;5048125;28;20054;-65
2022/12/17 19:53:55;;;;;;;16.17;12.87;;;;;;;;;;5044292;28;20041;-66
2022/12/17 19:56:26;;;;;;;17.58;13.25;;;;;;;;;;5030748;28;20061;-66
2022/12/17 19:58:53;;;;;;;18.02;11.82;;;;;;;;;;5050870;28;20064;-63
2022/12/17 20:01:21;;;;;;;15.10;11.93;;;;;;;;;;5051157;28;20053;-66
2022/12/17 20:03:48;;;;;;;22.50;15.10;;;;;;;;;;5051026;28;20083;-67
2022/12/17 20:06:15;;;;;;;56.17;34.65;;;;;;;;;;5050966;28;20055;-67
2022/12/17 20:08:42;;;;;;;147.88;101.90;;;;;;;;;;5050719;28;20210;-67
2022/12/17 20:13:58;;;;;;;109.13;59.35;;;;;;;;;;5043405;28;20042;-67
2022/12/17 20:16:25;;;;;;;50.67;30.55;;;;;;;;;;5033292;28;20048;-65
2022/12/17 20:18:51;;;;;;;48.70;26.67;;;;;;;;;;5030364;28;20497;-66
2022/12/17 20:21:18;;;;;;;55.05;30.83;;;;;;;;;;5030553;28;20053;-65
2022/12/17 20:23:48;;;;;;;96.82;51.40;;;;;;;;;;5030243;28;20049;-65
2022/12/17 20:26:15;;;;;;;69.03;40.00;;;;;;;;;;5030617;28;20045;-66
2022/12/17 20:28:41;;;;;;;39.45;24.50;;;;;;;;;;5030285;28;20056;-66
2022/12/17 20:31:08;;;;;;;39.42;21.83;;;;;;;;;;5030356;28;20046;-66
2022/12/17 20:33:34;;;;;;;42.28;24.80;;;;;;;;;;5030384;28;20042;-66
2022/12/17 20:36:05;;;;;;;38.80;22.58;;;;;;;;;;5030092;28;20042;-66
2022/12/17 20:38:32;;;;;;;42.15;22.60;;;;;;;;;;5030460;28;20045;-66
2022/12/17 20:40:58;;;;;;;46.28;27.45;;;;;;;;;;5030607;28;20049;-66
2022/12/17 20:43:25;;;;;;;23.85;15.07;;;;;;;;;;5034393;28;20053;-66
2022/12/17 20:45:55;;;;;;;16.13;12.03;;;;;;;;;;5049385;28;20055;-66
2022/12/17 20:48:22;;;;;;;17.15;12.02;;;;;;;;;;5046461;28;20061;-65
2022/12/17 20:50:49;;;;;;;16.67;11.93;;;;;;;;;;5033524;28;20045;-66
2022/12/17 20:53:15;;;;;;;19.15;13.75;;;;;;;;;;5033467;28;20452;-66
2022/12/17 20:55:42;;;;;;;19.23;13.98;;;;;;;;;;5033243;28;20497;-66
2022/12/17 20:58:08;;;;;;;18.13;13.45;;;;;;;;;;5047157;28;20045;-66
2022/12/17 21:00:34;;;;;;;16.75;14.10;;;;;;;;;;5046007;28;20045;-66
2022/12/17 21:03:01;;;;;;;21.15;13.73;;;;;;;;;;5033762;28;20041;-66
2022/12/17 21:05:27;;;;;;;18.83;13.90;;;;;;;;;;5033168;28;20095;-66
2022/12/17 21:07:54;;;;;;;15.57;13.07;;;;;;;;;;5033555;28;20053;-66
2022/12/17 21:10:21;;;;;;;17.25;11.68;;;;;;;;;;5034088;28;20042;-65
2022/12/17 21:15:32;;;;;;;16.70;12.05;;;;;;;;;;5033749;28;20049;-65
2022/12/17 21:17:58;;;;;;;28.23;22.30;;;;;;;;;;5044865;28;20056;-65
2022/12/17 21:20:25;;;;;;;33.72;21.90;;;;;;;;;;5054018;28;20051;-65
2022/12/17 21:22:51;;;;;;;40.78;25.02;;;;;;;;;;5053517;28;20051;-66
2022/12/17 21:25:18;;;;;;;38.83;24.80;;;;;;;;;;5053539;28;20492;-65
2022/12/17 21:27:44;;;;;;;39.53;23.55;;;;;;;;;;5053353;28;20049;-65
2022/12/17 21:30:11;;;;;;;24.67;18.15;;;;;;;;;;5053745;28;20055;-63
2022/12/17 21:32:38;;;;;;;;;;;;;;;;;;5041905;28;20053;-66
2022/12/17 21:35:05;;;;;;;24.38;17.27;;;;;;;;;;5033006;28;20371;-66
2022/12/17 21:37:31;;;;;;;20.95;15.18;;;;;;;;;;5033044;28;20421;-65
2022/12/17 21:39:58;;;;;;;19.50;13.60;;;;;;;;;;5041675;28;20048;-65
2022/12/17 21:45:10;;;;;;;34.33;20.60;;;;;;;;;;5053415;28;20294;-66
2022/12/17 21:47:36;;;;;;;37.75;23.25;;;;;;;;;;5051218;28;20420;-66
2022/12/17 21:50:03;;;;;;;39.92;24.55;;;;;;;;;;5053042;28;20408;-66
2022/12/17 21:52:29;;;;;;;37.38;24.42;;;;;;;;;;5052431;28;20455;-65
2022/12/17 21:54:56;;;;;;;30.52;20.45;;;;;;;;;;5052666;28;20041;-65
2022/12/17 21:57:22;;;;;;;28.52;20.10;;;;;;;;;;5053176;28;20079;-66
2022/12/17 21:59:49;;;;;;;29.05;19.05;;;;;;;;;;5053153;28;20059;-65
2022/12/17 22:02:16;;;;;;;26.55;18.20;;;;;;;;;;5053043;28;20053;-65
2022/12/17 22:04:43;;;;;;;28.67;18.55;;;;;;;;;;5052731;28;20588;-66
2022/12/17 22:07:10;;;;;;;30.75;22.00;;;;;;;;;;5052642;28;20047;-66
2022/12/17 22:09:37;;;;;;;29.83;20.92;;;;;;;;;;5053043;28;20052;-66
2022/12/17 22:15:09;;;;;;;29.50;19.20;;;;;;;;;;5053082;28;20055;-65
2022/12/17 22:17:37;;;;;;;30.00;19.05;;;;;;;;;;5052887;28;20048;-66
2022/12/17 22:20:04;;;;;;;26.42;18.77;;;;;;;;;;5052745;28;20439;-66
2022/12/17 22:22:31;;;;;;;25.03;16.93;;;;;;;;;;5051214;28;20044;-66
2022/12/17 22:24:57;;;;;;;25.55;17.08;;;;;;;;;;5052324;28;20289;-65
2022/12/17 22:27:31;;;;;;;25.48;16.05;;;;;;;;;;5052382;28;20086;-65
2022/12/17 22:35:35;;;;;;;26.38;17.55;;;;;;;;;;5052512;28;20188;-65
2022/12/17 22:38:22;;;;;;;26.95;17.95;;;;;;;;;;5052231;28;20542;-65
2022/12/17 22:43:28;;;;;;;27.55;17.30;;;;;;;;;;5052027;28;20045;-65
2022/12/17 22:44:14;;;;;;;29.52;18.52;;;;;;;;;;5050521;28;20053;-65
2022/12/17 22:47:01;;;;;;;27.08;17.90;;;;;;;;;;5040181;28;20041;-65
2022/12/17 22:49:27;;;;;;;28.95;17.10;;;;;;;;;;5051999;28;20049;-65
2022/12/17 22:51:54;;;;;;;33.38;19.17;;;;;;;;;;5051863;28;20095;-65
2022/12/17 22:54:20;;;;;;;37.63;21.60;;;;;;;;;;5052075;28;20118;-65
2022/12/17 22:56:47;;;;;;;32.00;19.73;;;;;;;;;;5052059;28;20049;-65
2022/12/17 22:59:33;;;;;;;31.15;20.00;;;;;;;;;;5051726;28;20572;-65
2022/12/17 23:02:00;;;;;;;31.30;19.30;;;;;;;;;;5051637;28;20053;-65
2022/12/17 23:04:26;;;;;;;31.08;19.00;;;;;;;;;;5051345;28;20507;-65
2022/12/17 23:06:53;;;;;;;32.15;19.42;;;;;;;;;;5051793;28;20145;-65
2022/12/17 23:09:19;;;;;;;26.77;16.13;;;;;;;;;;5036224;28;20405;-65
2022/12/17 23:11:46;;;;;;;26.35;17.27;;;;;;;;;;5035989;28;20046;-65
2022/12/17 23:14:13;;;;;;;34.83;19.37;;;;;;;;;;5031302;28;20539;-65
2022/12/17 23:16:39;;;;;;;32.65;19.30;;;;;;;;;;5031323;28;20297;-65
2022/12/17 23:19:06;;;;;;;34.20;20.60;;;;;;;;;;5046437;28;20073;-65
2022/12/17 23:21:33;;;;;;;35.70;21.60;;;;;;;;;;5051450;28;20051;-65
2022/12/17 23:23:59;;;;;;;30.55;19.15;;;;;;;;;;5051297;28;20053;-64
2022/12/17 23:26:28;;;;;;;31.85;18.73;;;;;;;;;;5051196;28;20059;-65
2022/12/17 23:28:58;;;;;;;28.25;18.92;;;;;;;;;;5051521;28;20041;-65
2022/12/17 23:31:26;;;;;;;31.60;19.17;;;;;;;;;;5051741;28;20052;-65
2022/12/17 23:33:53;;;;;;;31.38;20.50;;;;;;;;;;5051243;28;20416;-64
2022/12/17 23:36:21;;;;;;;32.38;20.20;;;;;;;;;;5051408;28;20049;-64
2022/12/17 23:38:48;;;;;;;31.52;20.08;;;;;;;;;;5051186;28;20053;-64
2022/12/17 23:41:18;;;;;;;39.00;22.55;;;;;;;;;;5051136;28;20048;-65
2022/12/17 23:43:45;;;;;;;39.33;22.98;;;;;;;;;;5051391;28;20045;-65
2022/12/17 23:46:12;;;;;;;45.30;26.45;;;;;;;;;;5043650;28;20045;-65
2022/12/17 23:48:39;;;;;;;44.90;25.92;;;;;;;;;;5031034;28;20045;-66
2022/12/17 23:51:12;;;;;;;43.10;23.90;;;;;;;;;;5047574;28;20041;-65
2022/12/17 23:53:38;;;;;;;43.78;24.42;;;;;;;;;;5037603;28;20046;-65
2022/12/17 23:56:07;;;;;;;32.85;20.02;;;;;;;;;;5051052;28;20047;-65
2022/12/17 23:58:33;;;;;;;33.45;18.73;;;;;;;;;;5050910;28;20063;-66
